sensor_id;sensor_type;location;lat;lon;timestamp;pressure;altitude;pressure_sealevel;temperature;humidity
61113;BME280;47184;57.998;56.184;2022-08-14T00:00:17;100606.44;;;12.32;61.82
61113;BME280;47184;57.998;56.184;2022-08-14T00:02:45;100652.16;;;12.68;61.58
61113;BME280;47184;57.998;56.184;2022-08-14T00:05:13;100648.50;;;12.69;61.70
61113;BME280;47184;57.998;56.184;2022-08-14T00:07:40;100617.78;;;12.50;61.66
61113;BME280;47184;57.998;56.184;2022-08-14T00:10:09;100651.34;;;12.76;61.69
61113;BME280;47184;57.998;56.184;2022-08-14T00:12:38;100654.50;;;12.71;61.60
61113;BME280;47184;57.998;56.184;2022-08-14T00:15:32;100652.31;;;12.67;61.73
61113;BME280;47184;57.998;56.184;2022-08-14T00:18:01;100590.19;;;12.27;61.55
61113;BME280;47184;57.998;56.184;2022-08-14T00:20:31;100647.97;;;12.57;61.86
61113;BME280;47184;57.998;56.184;2022-08-14T00:22:58;100659.75;;;12.63;61.94
61113;BME280;47184;57.998;56.184;2022-08-14T00:25:26;100652.75;;;12.54;61.87
61113;BME280;47184;57.998;56.184;2022-08-14T00:27:53;100613.50;;;12.23;61.97
61113;BME280;47184;57.998;56.184;2022-08-14T00:30:20;100668.94;;;12.51;62.13
61113;BME280;47184;57.998;56.184;2022-08-14T00:32:47;100671.75;;;12.49;62.11
61113;BME280;47184;57.998;56.184;2022-08-14T00:35:13;100639.97;;;12.23;62.14
61113;BME280;47184;57.998;56.184;2022-08-14T00:37:41;100677.38;;;12.46;62.36
61113;BME280;47184;57.998;56.184;2022-08-14T00:40:09;100583.63;;;11.87;62.12
61113;BME280;47184;57.998;56.184;2022-08-14T00:42:36;100683.50;;;12.47;62.19
61113;BME280;47184;57.998;56.184;2022-08-14T00:45:03;100678.72;;;12.50;62.41
61113;BME280;47184;57.998;56.184;2022-08-14T00:47:30;100682.19;;;12.51;62.08
61113;BME280;47184;57.998;56.184;2022-08-14T00:49:56;100685.84;;;12.50;62.32
61113;BME280;47184;57.998;56.184;2022-08-14T00:52:22;100667.34;;;12.32;62.26
61113;BME280;47184;57.998;56.184;2022-08-14T00:54:51;100676.53;;;12.46;62.14
61113;BME280;47184;57.998;56.184;2022-08-14T00:57:21;100683.53;;;12.55;62.00
61113;BME280;47184;57.998;56.184;2022-08-14T00:59:48;100687.19;;;12.54;62.21
61113;BME280;47184;57.998;56.184;2022-08-14T01:02:16;100695.28;;;12.52;62.35
61113;BME280;47184;57.998;56.184;2022-08-14T01:04:44;100698.09;;;12.51;62.21
61113;BME280;47184;57.998;56.184;2022-08-14T01:07:12;100642.91;;;12.20;62.30
61113;BME280;47184;57.998;56.184;2022-08-14T01:09:55;100698.44;;;12.56;62.27
61113;BME280;47184;57.998;56.184;2022-08-14T01:12:23;100692.16;;;12.57;62.01
61113;BME280;47184;57.998;56.184;2022-08-14T01:14:49;100696.75;;;12.47;62.26
61113;BME280;47184;57.998;56.184;2022-08-14T01:17:21;100673.41;;;12.24;62.58
61113;BME280;47184;57.998;56.184;2022-08-14T01:19:48;100619.47;;;11.81;62.71
61113;BME280;47184;57.998;56.184;2022-08-14T01:22:33;100698.22;;;12.23;62.99
61113;BME280;47184;57.998;56.184;2022-08-14T01:25:01;100647.47;;;11.84;63.11
61113;BME280;47184;57.998;56.184;2022-08-14T01:27:29;100697.69;;;12.20;63.15
61113;BME280;47184;57.998;56.184;2022-08-14T01:29:56;100684.56;;;12.10;63.25
61113;BME280;47184;57.998;56.184;2022-08-14T01:32:23;100712.81;;;12.27;63.13
61113;BME280;47184;57.998;56.184;2022-08-14T01:34:50;100705.88;;;12.26;63.06
61113;BME280;47184;57.998;56.184;2022-08-14T01:37:20;100676.09;;;12.06;63.22
61113;BME280;47184;57.998;56.184;2022-08-14T01:39:51;100663.09;;;11.95;63.51
61113;BME280;47184;57.998;56.184;2022-08-14T01:42:18;100715.75;;;12.24;63.52
61113;BME280;47184;57.998;56.184;2022-08-14T01:44:46;100712.34;;;12.32;63.31
61113;BME280;47184;57.998;56.184;2022-08-14T01:47:17;100662.56;;;12.09;63.32
61113;BME280;47184;57.998;56.184;2022-08-14T01:49:44;100638.97;;;11.98;63.69
61113;BME280;47184;57.998;56.184;2022-08-14T01:52:10;100699.56;;;12.45;63.40
61113;BME280;47184;57.998;56.184;2022-08-14T01:54:37;100694.41;;;12.44;63.22
61113;BME280;47184;57.998;56.184;2022-08-14T01:57:04;100701.63;;;12.59;63.33
61113;BME280;47184;57.998;56.184;2022-08-14T01:59:36;100709.41;;;12.61;63.36
61113;BME280;47184;57.998;56.184;2022-08-14T02:02:05;100709.91;;;12.64;63.26
61113;BME280;47184;57.998;56.184;2022-08-14T02:04:37;100707.00;;;12.76;63.29
61113;BME280;47184;57.998;56.184;2022-08-14T02:07:05;100675.63;;;12.63;63.25
61113;BME280;47184;57.998;56.184;2022-08-14T02:09:31;100718.66;;;12.83;63.22
61113;BME280;47184;57.998;56.184;2022-08-14T02:12:01;100630.72;;;12.27;63.49
61113;BME280;47184;57.998;56.184;2022-08-14T02:14:28;100696.72;;;12.73;63.54
61113;BME280;47184;57.998;56.184;2022-08-14T02:16:54;100722.50;;;12.97;63.42
61113;BME280;47184;57.998;56.184;2022-08-14T02:19:23;100728.06;;;13.11;62.96
61113;BME280;47184;57.998;56.184;2022-08-14T02:21:54;100700.97;;;12.92;62.80
61113;BME280;47184;57.998;56.184;2022-08-14T02:24:22;100736.16;;;13.36;62.31
61113;BME280;47184;57.998;56.184;2022-08-14T02:26:50;100732.69;;;13.44;62.35
61113;BME280;47184;57.998;56.184;2022-08-14T02:29:20;100741.81;;;13.49;62.22
61113;BME280;47184;57.998;56.184;2022-08-14T02:31:51;100697.81;;;13.30;62.36
61113;BME280;47184;57.998;56.184;2022-08-14T02:34:27;100696.34;;;13.36;62.03
61113;BME280;47184;57.998;56.184;2022-08-14T02:37:00;100678.28;;;13.31;62.24
61113;BME280;47184;57.998;56.184;2022-08-14T02:39:31;100723.59;;;13.54;61.91
61113;BME280;47184;57.998;56.184;2022-08-14T02:41:59;100684.56;;;13.30;62.03
61113;BME280;47184;57.998;56.184;2022-08-14T02:44:25;100677.91;;;13.26;62.02
61113;BME280;47184;57.998;56.184;2022-08-14T02:46:53;100710.66;;;13.51;62.10
61113;BME280;47184;57.998;56.184;2022-08-14T02:49:23;100737.69;;;13.63;62.05
61113;BME280;47184;57.998;56.184;2022-08-14T02:51:55;100733.06;;;13.65;62.24
61113;BME280;47184;57.998;56.184;2022-08-14T02:54:22;100677.09;;;13.26;61.99
61113;BME280;47184;57.998;56.184;2022-08-14T02:56:49;100742.72;;;13.74;62.13
61113;BME280;47184;57.998;56.184;2022-08-14T02:59:16;100738.72;;;13.70;62.14
61113;BME280;47184;57.998;56.184;2022-08-14T03:01:43;100697.22;;;13.53;61.77
61113;BME280;47184;57.998;56.184;2022-08-14T03:04:11;100759.34;;;14.01;61.85
61113;BME280;47184;57.998;56.184;2022-08-14T03:06:39;100680.50;;;13.60;61.29
61113;BME280;47184;57.998;56.184;2022-08-14T03:09:09;100725.34;;;13.96;60.96
61113;BME280;47184;57.998;56.184;2022-08-14T03:11:37;100758.88;;;14.22;60.80
61113;BME280;47184;57.998;56.184;2022-08-14T03:14:04;100699.25;;;13.92;60.74
61113;BME280;47184;57.998;56.184;2022-08-14T03:16:30;100760.50;;;14.39;60.78
61113;BME280;47184;57.998;56.184;2022-08-14T03:19:02;100731.13;;;14.41;60.21
61113;BME280;47184;57.998;56.184;2022-08-14T03:21:30;100711.69;;;14.40;60.13
61113;BME280;47184;57.998;56.184;2022-08-14T03:23:57;100700.53;;;14.45;59.80
61113;BME280;47184;57.998;56.184;2022-08-14T03:26:44;100751.34;;;14.91;59.86
61113;BME280;47184;57.998;56.184;2022-08-14T03:29:13;100732.75;;;14.82;59.78
61113;BME280;47184;57.998;56.184;2022-08-14T03:31:41;100753.09;;;15.15;59.21
61113;BME280;47184;57.998;56.184;2022-08-14T03:34:07;100724.31;;;15.10;59.35
61113;BME280;47184;57.998;56.184;2022-08-14T03:36:38;100760.59;;;15.42;59.00
61113;BME280;47184;57.998;56.184;2022-08-14T03:39:09;100749.63;;;15.45;58.44
61113;BME280;47184;57.998;56.184;2022-08-14T03:41:35;100713.16;;;15.23;58.58
61113;BME280;47184;57.998;56.184;2022-08-14T03:44:04;100768.84;;;15.64;58.62
61113;BME280;47184;57.998;56.184;2022-08-14T03:46:33;100774.97;;;15.72;58.46
61113;BME280;47184;57.998;56.184;2022-08-14T03:49:00;100779.25;;;15.81;58.08
61113;BME280;47184;57.998;56.184;2022-08-14T03:51:30;100771.84;;;15.92;57.71
61113;BME280;47184;57.998;56.184;2022-08-14T03:54:01;100763.75;;;15.85;57.61
61113;BME280;47184;57.998;56.184;2022-08-14T03:56:28;100779.50;;;15.95;57.36
61113;BME280;47184;57.998;56.184;2022-08-14T03:58:59;100770.81;;;16.01;57.43
61113;BME280;47184;57.998;56.184;2022-08-14T04:01:27;100727.47;;;15.84;57.23
61113;BME280;47184;57.998;56.184;2022-08-14T04:03:54;100781.28;;;16.25;56.82
61113;BME280;47184;57.998;56.184;2022-08-14T04:06:22;100784.34;;;16.37;56.73
61113;BME280;47184;57.998;56.184;2022-08-14T04:08:49;100680.72;;;15.81;56.60
61113;BME280;47184;57.998;56.184;2022-08-14T04:11:16;100757.88;;;16.35;56.17
61113;BME280;47184;57.998;56.184;2022-08-14T04:13:42;100770.78;;;16.47;56.32
61113;BME280;47184;57.998;56.184;2022-08-14T04:16:14;100766.72;;;16.51;56.18
61113;BME280;47184;57.998;56.184;2022-08-14T04:18:43;100760.50;;;16.58;56.12
61113;BME280;47184;57.998;56.184;2022-08-14T04:21:11;100762.06;;;16.68;56.05
61113;BME280;47184;57.998;56.184;2022-08-14T04:23:39;100772.19;;;16.72;55.85
61113;BME280;47184;57.998;56.184;2022-08-14T04:26:07;100739.72;;;16.69;55.61
61113;BME280;47184;57.998;56.184;2022-08-14T04:28:34;100731.03;;;16.75;55.36
61113;BME280;47184;57.998;56.184;2022-08-14T04:31:02;100773.34;;;17.22;54.96
61113;BME280;47184;57.998;56.184;2022-08-14T04:33:28;100770.50;;;17.24;54.99
61113;BME280;47184;57.998;56.184;2022-08-14T04:35:55;100709.88;;;17.03;54.93
61113;BME280;47184;57.998;56.184;2022-08-14T04:38:21;100757.78;;;17.41;54.69
61113;BME280;47184;57.998;56.184;2022-08-14T04:41:07;100667.09;;;16.96;54.56
61113;BME280;47184;57.998;56.184;2022-08-14T04:43:52;100753.03;;;17.57;54.34
61113;BME280;47184;57.998;56.184;2022-08-14T04:46:20;100731.91;;;17.41;54.40
61113;BME280;47184;57.998;56.184;2022-08-14T04:48:47;100683.34;;;17.16;54.15
61113;BME280;47184;57.998;56.184;2022-08-14T04:51:16;100756.59;;;17.79;54.25
61113;BME280;47184;57.998;56.184;2022-08-14T04:53:44;100746.44;;;17.90;53.76
61113;BME280;47184;57.998;56.184;2022-08-14T04:56:13;100759.22;;;18.16;53.48
61113;BME280;47184;57.998;56.184;2022-08-14T04:58:40;100756.47;;;18.30;53.16
61113;BME280;47184;57.998;56.184;2022-08-14T05:01:10;100747.28;;;18.40;52.61
61113;BME280;47184;57.998;56.184;2022-08-14T05:03:38;100755.63;;;18.51;51.99
61113;BME280;47184;57.998;56.184;2022-08-14T05:06:06;100736.41;;;18.41;51.91
61113;BME280;47184;57.998;56.184;2022-08-14T05:08:34;100747.38;;;18.53;51.44
61113;BME280;47184;57.998;56.184;2022-08-14T05:11:04;100719.38;;;18.49;50.94
61113;BME280;47184;57.998;56.184;2022-08-14T05:13:33;100751.03;;;19.01;50.34
61113;BME280;47184;57.998;56.184;2022-08-14T05:16:00;100750.09;;;19.22;49.77
61113;BME280;47184;57.998;56.184;2022-08-14T05:18:29;100747.72;;;19.41;49.44
61113;BME280;47184;57.998;56.184;2022-08-14T05:20:58;100753.19;;;19.67;48.67
61113;BME280;47184;57.998;56.184;2022-08-14T05:23:26;100708.81;;;19.51;47.58
61113;BME280;47184;57.998;56.184;2022-08-14T05:25:55;100762.75;;;19.90;47.02
61113;BME280;47184;57.998;56.184;2022-08-14T05:28:27;100683.06;;;19.57;46.34
61113;BME280;47184;57.998;56.184;2022-08-14T05:30:59;100758.84;;;20.12;45.89
61113;BME280;47184;57.998;56.184;2022-08-14T05:33:28;100759.47;;;20.08;45.56
61113;BME280;47184;57.998;56.184;2022-08-14T05:35:57;100763.59;;;19.97;45.91
61113;BME280;47184;57.998;56.184;2022-08-14T05:38:32;100750.81;;;20.06;46.12
61113;BME280;47184;57.998;56.184;2022-08-14T05:41:02;100753.91;;;20.09;46.05
61113;BME280;47184;57.998;56.184;2022-08-14T05:43:29;100718.59;;;19.79;45.98
61113;BME280;47184;57.998;56.184;2022-08-14T05:45:59;100754.09;;;19.94;46.09
61113;BME280;47184;57.998;56.184;2022-08-14T05:48:26;100750.78;;;19.86;45.92
61113;BME280;47184;57.998;56.184;2022-08-14T05:50:53;100748.69;;;19.88;45.95
61113;BME280;47184;57.998;56.184;2022-08-14T05:53:24;100750.38;;;19.95;46.23
61113;BME280;47184;57.998;56.184;2022-08-14T05:55:51;100737.97;;;19.88;46.03
61113;BME280;47184;57.998;56.184;2022-08-14T05:58:18;100745.41;;;19.86;46.13
61113;BME280;47184;57.998;56.184;2022-08-14T06:00:45;100638.47;;;19.16;46.14
61113;BME280;47184;57.998;56.184;2022-08-14T06:03:13;100694.06;;;19.69;46.05
61113;BME280;47184;57.998;56.184;2022-08-14T06:05:43;100737.63;;;20.57;45.19
61113;BME280;47184;57.998;56.184;2022-08-14T06:08:24;100696.19;;;21.11;44.30
61113;BME280;47184;57.998;56.184;2022-08-14T06:10:52;100736.41;;;22.08;42.51
61113;BME280;47184;57.998;56.184;2022-08-14T06:13:18;100728.84;;;22.48;41.88
61113;BME280;47184;57.998;56.184;2022-08-14T06:15:45;100700.91;;;22.67;40.60
61113;BME280;47184;57.998;56.184;2022-08-14T06:18:11;100745.09;;;23.21;40.23
61113;BME280;47184;57.998;56.184;2022-08-14T06:20:37;100705.03;;;23.25;39.79
61113;BME280;47184;57.998;56.184;2022-08-14T06:23:04;100713.34;;;23.72;38.71
61113;BME280;47184;57.998;56.184;2022-08-14T06:25:30;100745.28;;;24.40;37.97
61113;BME280;47184;57.998;56.184;2022-08-14T06:27:57;100712.94;;;25.16;37.31
61113;BME280;47184;57.998;56.184;2022-08-14T06:30:26;100726.59;;;26.29;35.26
61113;BME280;47184;57.998;56.184;2022-08-14T06:32:54;100650.84;;;25.78;34.79
61113;BME280;47184;57.998;56.184;2022-08-14T06:35:20;100661.47;;;26.35;34.29
61113;BME280;47184;57.998;56.184;2022-08-14T06:37:56;100667.34;;;26.88;33.68
61113;BME280;47184;57.998;56.184;2022-08-14T06:40:35;100725.56;;;27.73;32.79
61113;BME280;47184;57.998;56.184;2022-08-14T06:43:05;100735.13;;;27.81;32.59
61113;BME280;47184;57.998;56.184;2022-08-14T06:45:33;100726.53;;;27.67;32.40
61113;BME280;47184;57.998;56.184;2022-08-14T06:47:59;100737.03;;;28.12;31.71
61113;BME280;47184;57.998;56.184;2022-08-14T06:50:27;100690.38;;;28.21;31.22
61113;BME280;47184;57.998;56.184;2022-08-14T06:52:54;100721.41;;;28.67;30.64
61113;BME280;47184;57.998;56.184;2022-08-14T06:55:20;100716.50;;;28.64;30.39
61113;BME280;47184;57.998;56.184;2022-08-14T06:57:48;100617.88;;;28.21;30.23
61113;BME280;47184;57.998;56.184;2022-08-14T07:00:18;100719.63;;;28.93;29.64
61113;BME280;47184;57.998;56.184;2022-08-14T07:02:45;100712.72;;;29.28;29.31
61113;BME280;47184;57.998;56.184;2022-08-14T07:05:31;100729.06;;;29.38;28.84
61113;BME280;47184;57.998;56.184;2022-08-14T07:08:20;100720.03;;;29.12;29.08
61113;BME280;47184;57.998;56.184;2022-08-14T07:10:49;100690.81;;;28.92;29.02
61113;BME280;47184;57.998;56.184;2022-08-14T07:13:16;100716.00;;;29.35;28.61
61113;BME280;47184;57.998;56.184;2022-08-14T07:15:47;100717.41;;;29.53;28.42
61113;BME280;47184;57.998;56.184;2022-08-14T07:18:20;100693.25;;;29.87;28.11
61113;BME280;47184;57.998;56.184;2022-08-14T07:20:46;100632.22;;;29.37;27.87
61113;BME280;47184;57.998;56.184;2022-08-14T07:23:13;100707.41;;;30.09;27.79
61113;BME280;47184;57.998;56.184;2022-08-14T07:25:41;100715.22;;;30.82;26.89
61113;BME280;47184;57.998;56.184;2022-08-14T07:28:11;100701.59;;;30.67;27.00
61113;BME280;47184;57.998;56.184;2022-08-14T07:30:37;100628.88;;;29.15;27.80
61113;BME280;47184;57.998;56.184;2022-08-14T07:33:04;100688.25;;;29.33;27.76
61113;BME280;47184;57.998;56.184;2022-08-14T07:35:32;100702.50;;;29.91;27.80
61113;BME280;47184;57.998;56.184;2022-08-14T07:37:58;100678.00;;;30.22;27.25
61113;BME280;47184;57.998;56.184;2022-08-14T07:40:24;100683.41;;;30.42;26.95
61113;BME280;47184;57.998;56.184;2022-08-14T07:42:52;100694.84;;;31.24;26.52
61113;BME280;47184;57.998;56.184;2022-08-14T07:45:18;100641.88;;;31.36;25.58
61113;BME280;47184;57.998;56.184;2022-08-14T07:47:44;100695.22;;;32.25;25.05
61113;BME280;47184;57.998;56.184;2022-08-14T07:50:14;100679.81;;;32.35;24.80
61113;BME280;47184;57.998;56.184;2022-08-14T07:52:41;100677.97;;;30.42;25.91
61113;BME280;47184;57.998;56.184;2022-08-14T07:55:09;100673.22;;;29.10;27.70
61113;BME280;47184;57.998;56.184;2022-08-14T07:57:38;100679.75;;;28.14;28.76
61113;BME280;47184;57.998;56.184;2022-08-14T08:00:10;100693.38;;;27.60;29.72
61113;BME280;47184;57.998;56.184;2022-08-14T08:02:40;100663.22;;;28.21;29.01
61113;BME280;47184;57.998;56.184;2022-08-14T08:05:08;100640.94;;;28.19;28.51
61113;BME280;47184;57.998;56.184;2022-08-14T08:07:35;100667.03;;;29.55;27.47
61113;BME280;47184;57.998;56.184;2022-08-14T08:10:06;100680.44;;;30.28;26.88
61113;BME280;47184;57.998;56.184;2022-08-14T08:12:54;100691.03;;;29.58;27.24
61113;BME280;47184;57.998;56.184;2022-08-14T08:15:22;100650.13;;;27.48;29.06
61113;BME280;47184;57.998;56.184;2022-08-14T08:17:49;100612.56;;;26.86;30.39
61113;BME280;47184;57.998;56.184;2022-08-14T08:20:18;100688.09;;;28.07;29.32
61113;BME280;47184;57.998;56.184;2022-08-14T08:22:48;100679.47;;;29.05;28.65
61113;BME280;47184;57.998;56.184;2022-08-14T08:25:17;100675.25;;;30.42;27.09
61113;BME280;47184;57.998;56.184;2022-08-14T08:28:11;100685.75;;;31.78;25.85
61113;BME280;47184;57.998;56.184;2022-08-14T08:30:39;100684.78;;;31.64;24.72
61113;BME280;47184;57.998;56.184;2022-08-14T08:33:08;100676.81;;;31.28;25.40
61113;BME280;47184;57.998;56.184;2022-08-14T08:35:36;100685.91;;;29.98;26.62
61113;BME280;47184;57.998;56.184;2022-08-14T08:38:08;100577.97;;;28.27;27.76
61113;BME280;47184;57.998;56.184;2022-08-14T08:40:40;100687.47;;;27.95;28.91
61113;BME280;47184;57.998;56.184;2022-08-14T08:43:30;100676.88;;;27.12;29.78
61113;BME280;47184;57.998;56.184;2022-08-14T08:46:06;100634.13;;;26.37;30.72
61113;BME280;47184;57.998;56.184;2022-08-14T08:48:53;100684.75;;;26.36;30.95
61113;BME280;47184;57.998;56.184;2022-08-14T08:51:30;100677.88;;;26.12;31.50
61113;BME280;47184;57.998;56.184;2022-08-14T08:53:58;100680.03;;;26.10;31.82
61113;BME280;47184;57.998;56.184;2022-08-14T08:56:40;100665.44;;;27.92;30.34
61113;BME280;47184;57.998;56.184;2022-08-14T08:59:22;100667.72;;;28.95;28.35
61113;BME280;47184;57.998;56.184;2022-08-14T09:01:51;100668.06;;;29.08;28.20
61113;BME280;47184;57.998;56.184;2022-08-14T09:04:19;100670.69;;;28.93;27.93
61113;BME280;47184;57.998;56.184;2022-08-14T09:06:46;100642.91;;;27.91;28.46
61113;BME280;47184;57.998;56.184;2022-08-14T09:09:20;100666.72;;;27.52;29.29
61113;BME280;47184;57.998;56.184;2022-08-14T09:11:48;100674.03;;;27.24;29.91
61113;BME280;47184;57.998;56.184;2022-08-14T09:14:14;100667.41;;;26.93;30.59
61113;BME280;47184;57.998;56.184;2022-08-14T09:16:40;100675.16;;;26.84;31.21
61113;BME280;47184;57.998;56.184;2022-08-14T09:19:08;100666.25;;;26.67;31.54
61113;BME280;47184;57.998;56.184;2022-08-14T09:21:37;100668.81;;;26.57;31.21
61113;BME280;47184;57.998;56.184;2022-08-14T09:24:05;100643.16;;;26.42;31.64
61113;BME280;47184;57.998;56.184;2022-08-14T09:26:32;100648.19;;;26.95;30.85
61113;BME280;47184;57.998;56.184;2022-08-14T09:28:58;100677.22;;;28.39;29.24
61113;BME280;47184;57.998;56.184;2022-08-14T09:31:26;100671.41;;;28.26;29.17
61113;BME280;47184;57.998;56.184;2022-08-14T09:42:47;100666.28;;;33.15;23.57
61113;BME280;47184;57.998;56.184;2022-08-14T09:47:55;100597.44;;;33.08;23.12
61113;BME280;47184;57.998;56.184;2022-08-14T09:50:43;100618.25;;;33.42;23.16
61113;BME280;47184;57.998;56.184;2022-08-14T09:53:11;100649.03;;;34.45;21.88
61113;BME280;47184;57.998;56.184;2022-08-14T09:55:40;100596.84;;;34.64;21.57
61113;BME280;47184;57.998;56.184;2022-08-14T09:58:14;100621.69;;;35.32;21.03
61113;BME280;47184;57.998;56.184;2022-08-14T10:00:51;100652.38;;;35.70;20.14
61113;BME280;47184;57.998;56.184;2022-08-14T10:03:27;100633.47;;;35.68;19.91
61113;BME280;47184;57.998;56.184;2022-08-14T10:06:10;100645.22;;;35.46;19.76
61113;BME280;47184;57.998;56.184;2022-08-14T10:11:32;100642.78;;;34.59;20.83
61113;BME280;47184;57.998;56.184;2022-08-14T10:16:45;100643.75;;;31.40;23.01
61113;BME280;47184;57.998;56.184;2022-08-14T10:19:14;100646.59;;;30.50;24.49
61113;BME280;47184;57.998;56.184;2022-08-14T10:21:44;100641.19;;;29.43;25.55
61113;BME280;47184;57.998;56.184;2022-08-14T10:24:31;100647.63;;;28.38;27.18
61113;BME280;47184;57.998;56.184;2022-08-14T10:26:59;100647.53;;;27.90;27.65
61113;BME280;47184;57.998;56.184;2022-08-14T10:29:32;100645.38;;;27.93;28.12
61113;BME280;47184;57.998;56.184;2022-08-14T10:32:00;100644.28;;;28.78;27.74
61113;BME280;47184;57.998;56.184;2022-08-14T10:34:34;100629.31;;;28.86;27.24
61113;BME280;47184;57.998;56.184;2022-08-14T10:37:03;100596.59;;;29.44;26.71
61113;BME280;47184;57.998;56.184;2022-08-14T10:39:33;100645.72;;;31.29;25.16
61113;BME280;47184;57.998;56.184;2022-08-14T10:42:03;100635.63;;;32.94;23.50
61113;BME280;47184;57.998;56.184;2022-08-14T10:44:43;100642.34;;;34.65;21.78
61113;BME280;47184;57.998;56.184;2022-08-14T10:47:16;100654.75;;;35.63;20.64
61113;BME280;47184;57.998;56.184;2022-08-14T10:50:04;100611.72;;;36.12;20.15
61113;BME280;47184;57.998;56.184;2022-08-14T10:52:32;100644.22;;;37.50;19.43
61113;BME280;47184;57.998;56.184;2022-08-14T10:57:47;100625.97;;;39.11;17.86
61113;BME280;47184;57.998;56.184;2022-08-14T11:00:15;100619.16;;;39.96;17.00
61113;BME280;47184;57.998;56.184;2022-08-14T11:02:42;100647.97;;;39.61;17.12
61113;BME280;47184;57.998;56.184;2022-08-14T11:05:14;100632.63;;;38.38;18.08
61113;BME280;47184;57.998;56.184;2022-08-14T11:10:23;100592.53;;;38.62;18.25
61113;BME280;47184;57.998;56.184;2022-08-14T11:12:55;100621.88;;;39.71;16.76
61113;BME280;47184;57.998;56.184;2022-08-14T11:15:25;100627.72;;;40.52;15.87
61113;BME280;47184;57.998;56.184;2022-08-14T11:17:56;100611.63;;;40.82;15.75
61113;BME280;47184;57.998;56.184;2022-08-14T11:20:27;100625.66;;;40.61;16.40
61113;BME280;47184;57.998;56.184;2022-08-14T11:22:57;100635.19;;;41.28;15.96
61113;BME280;47184;57.998;56.184;2022-08-14T11:25:28;100613.13;;;40.92;15.71
61113;BME280;47184;57.998;56.184;2022-08-14T11:27:57;100631.94;;;39.88;16.00
61113;BME280;47184;57.998;56.184;2022-08-14T11:30:25;100631.00;;;38.67;17.13
61113;BME280;47184;57.998;56.184;2022-08-14T11:32:53;100610.50;;;37.45;17.84
61113;BME280;47184;57.998;56.184;2022-08-14T11:35:23;100624.31;;;36.13;18.90
61113;BME280;47184;57.998;56.184;2022-08-14T11:37:56;100616.66;;;34.75;20.11
61113;BME280;47184;57.998;56.184;2022-08-14T11:40:30;100604.50;;;33.28;20.87
61113;BME280;47184;57.998;56.184;2022-08-14T11:43:06;100615.94;;;32.49;21.56
61113;BME280;47184;57.998;56.184;2022-08-14T11:45:38;100621.47;;;32.68;21.79
61113;BME280;47184;57.998;56.184;2022-08-14T11:48:21;100607.84;;;33.06;21.55
61113;BME280;47184;57.998;56.184;2022-08-14T11:50:49;100616.69;;;33.87;21.03
61113;BME280;47184;57.998;56.184;2022-08-14T11:53:27;100600.91;;;34.67;20.49
61113;BME280;47184;57.998;56.184;2022-08-14T11:56:02;100616.84;;;34.37;20.50
61113;BME280;47184;57.998;56.184;2022-08-14T11:58:34;100619.44;;;33.55;20.99
61113;BME280;47184;57.998;56.184;2022-08-14T12:01:07;100587.88;;;33.90;20.55
61113;BME280;47184;57.998;56.184;2022-08-14T12:03:41;100610.81;;;35.04;19.91
61113;BME280;47184;57.998;56.184;2022-08-14T12:06:16;100611.63;;;36.26;18.87
61113;BME280;47184;57.998;56.184;2022-08-14T12:08:42;100615.81;;;36.80;18.64
61113;BME280;47184;57.998;56.184;2022-08-14T12:11:13;100608.22;;;37.38;18.01
61113;BME280;47184;57.998;56.184;2022-08-14T12:13:44;100559.94;;;37.23;17.65
61113;BME280;47184;57.998;56.184;2022-08-14T12:16:13;100560.09;;;37.18;17.48
61113;BME280;47184;57.998;56.184;2022-08-14T12:18:45;100601.28;;;36.97;18.29
61113;BME280;47184;57.998;56.184;2022-08-14T12:21:13;100604.84;;;37.24;18.14
61113;BME280;47184;57.998;56.184;2022-08-14T12:23:40;100599.44;;;37.62;17.51
61113;BME280;47184;57.998;56.184;2022-08-14T12:26:08;100596.88;;;37.57;17.23
61113;BME280;47184;57.998;56.184;2022-08-14T12:28:35;100585.44;;;37.76;17.07
61113;BME280;47184;57.998;56.184;2022-08-14T12:31:17;100589.25;;;37.54;17.25
61113;BME280;47184;57.998;56.184;2022-08-14T12:33:57;100583.13;;;36.96;17.40
61113;BME280;47184;57.998;56.184;2022-08-14T12:36:25;100590.34;;;36.66;17.80
61113;BME280;47184;57.998;56.184;2022-08-14T12:38:59;100581.03;;;36.27;17.82
61113;BME280;47184;57.998;56.184;2022-08-14T12:41:30;100583.50;;;35.44;18.69
61113;BME280;47184;57.998;56.184;2022-08-14T12:44:01;100592.44;;;34.77;19.24
61113;BME280;47184;57.998;56.184;2022-08-14T12:46:39;100590.44;;;34.69;19.54
61113;BME280;47184;57.998;56.184;2022-08-14T12:49:14;100591.97;;;34.75;19.72
61113;BME280;47184;57.998;56.184;2022-08-14T12:51:42;100601.94;;;34.43;19.70
61113;BME280;47184;57.998;56.184;2022-08-14T12:54:17;100591.91;;;33.27;20.16
61113;BME280;47184;57.998;56.184;2022-08-14T12:56:45;100598.84;;;32.15;21.68
61113;BME280;47184;57.998;56.184;2022-08-14T12:59:12;100500.78;;;31.26;21.93
61113;BME280;47184;57.998;56.184;2022-08-14T13:01:40;100586.78;;;32.64;21.63
61113;BME280;47184;57.998;56.184;2022-08-14T13:04:13;100588.38;;;33.45;20.88
61113;BME280;47184;57.998;56.184;2022-08-14T13:06:42;100591.66;;;34.08;20.47
61113;BME280;47184;57.998;56.184;2022-08-14T13:09:13;100600.50;;;34.32;20.27
61113;BME280;47184;57.998;56.184;2022-08-14T13:11:48;100604.06;;;34.60;20.04
61113;BME280;47184;57.998;56.184;2022-08-14T13:14:22;100598.28;;;34.48;20.18
61113;BME280;47184;57.998;56.184;2022-08-14T13:16:53;100585.34;;;33.93;20.67